Flight Track Log - Related Links

Times and Time Zones

All times are in EDT time to prevent confusion due to time zone crossing. See the AAY230 flight status page for this flight to view local times or setup timezone preferences in your user account.

Time Position Orientation Groundspeed Altitude Reporting Facility
EDT Latitude Longitude Course Direction KTS MPH feet Rate Location/Type
Sat 07:42:51 PM 33.9500 -118.4667 262° West 167 192 1,600  Level Southern California TRACON
Sat 07:43:53 PM 33.9406 -118.5439 262° West 242 278 3,500 2,371 Climbing Los Angeles Center
Sat 07:44:55 PM 33.9325 -118.6333 264° West 267 307 6,500 2,683 Climbing Los Angeles Center
Sat 07:45:56 PM 33.9878 -118.7044 313° West 282 325 9,000 1,268 Climbing Los Angeles Center
Sat 07:46:58 PM 34.0611 -118.7067 359° North 285 328 9,100  Climbing Los Angeles Center
Sat 07:48:00 PM 34.1228 -118.6511 37° Northeast 276 318 9,000 683 Descending Los Angeles Center
Sat 07:49:01 PM 34.1981 -118.6458 North 285 328 10,500 2,049 Climbing Los Angeles Center
Sat 07:50:03 PM 34.2750 -118.6703 345° North 287 330 13,200 2,439 Climbing Los Angeles Center
Sat 07:51:04 PM 34.3578 -118.6819 353° North 297 342 15,500 2,195 Climbing Los Angeles Center
Sat 07:52:06 PM 34.4419 -118.7033 348° North 306 352 17,700 2,000 Climbing Los Angeles Center
Sat 07:53:07 PM 34.5292 -118.7283 347° North 322 371 19,600 1,659 Climbing Los Angeles Center
Sat 07:54:09 PM 34.6144 -118.7722 337° Northwest 336 387 21,100 1,220 Climbing Los Angeles Center
Sat 07:55:10 PM 34.7275 -118.8239 339° North 365 420 22,100 844 Climbing Los Angeles Center
Sat 07:56:24 PM 34.8300 -118.8742 338° Northwest 393 452 23,000 397 Climbing Los Angeles Center
Sat 07:57:26 PM 34.9636 -118.9150 346° North 426 490 23,000  Level Los Angeles Center
Sat 07:58:27 PM 35.0808 -118.9458 348° North 438 504 23,000 488 Level Los Angeles Center
Sat 07:59:29 PM 35.2042 -118.9447 360° North 445 512 24,000 537 Climbing Los Angeles Center
Sat 08:00:30 PM 35.3494 -118.9394 North 439 505 24,100 1,122 Climbing Los Angeles Center
Sat 08:01:32 PM 35.4686 -118.9411 359° North 432 497 26,300 1,854 Climbing Los Angeles Center
Sat 08:02:33 PM 35.5867 -118.9369 North 427 491 27,900 1,380 Climbing Los Angeles Center
Sat 08:03:12 PM 35.6569 -118.9356 North 426 490 28,600 1,440 Climbing Oakland Center
Sat 08:04:13 PM 35.7731 -118.9681 347° North 433 498 30,300 1,230 Climbing Oakland Center
Sat 08:05:14 PM 35.8903 -118.9894 352° North 428 493 31,100 1,230 Climbing Oakland Center
Sat 08:06:15 PM 36.0064 -119.0172 349° North 425 489 32,800 1,279 Climbing Oakland Center
Sat 08:07:16 PM 36.1203 -119.0419 350° North 419 482 33,700 590 Climbing Oakland Center
Sat 08:08:17 PM 36.2500 -119.0783 347° North 404 465 34,000 148 Climbing Oakland Center
Sat 08:09:18 PM 36.3578 -119.1008 350° North 400 460 34,000  Level Oakland Center
Sat 08:10:19 PM 36.4694 -119.1314 348° North 408 470 34,000  Level Oakland Center
Sat 08:11:20 PM 36.5792 -119.1550 350° North 404 465 34,000  Level Oakland Center
Sat 08:12:21 PM 36.6883 -119.1844 348° North 402 463 34,000  Level Oakland Center
Sat 08:13:22 PM 36.7994 -119.2103 349° North 407 468 34,000  Level Oakland Center
Sat 08:14:23 PM 36.9111 -119.2394 348° North 410 472 34,000  Level Oakland Center
Sat 08:15:24 PM 37.0217 -119.2650 350° North 409 471 34,000  Level Oakland Center
Sat 08:16:25 PM 37.1314 -119.2961 347° North 409 471 34,000  Level Oakland Center
Sat 08:17:26 PM 37.2433 -119.3200 350° North 407 468 34,000  Level Oakland Center
Sat 08:18:27 PM 37.3556 -119.3533 347° North 416 479 34,000  Level Oakland Center
Sat 08:19:28 PM 37.4664 -119.3786 350° North 427 491 34,000  Level Oakland Center
Sat 08:20:29 PM 37.5969 -119.4067 350° North 407 468 34,000  Level Oakland Center
Sat 08:21:30 PM 37.7028 -119.4303 350° North 407 468 34,000  Level Oakland Center
Sat 08:22:31 PM 37.8150 -119.4628 347° North 414 476 34,000  Level Oakland Center
Sat 08:23:32 PM 37.9283 -119.4872 350° North 411 473 34,000  Level Oakland Center
Sat 08:24:33 PM 38.0403 -119.5186 348° North 414 476 34,000  Level Oakland Center
Sat 08:25:34 PM 38.1533 -119.5428 350° North 412 474 34,000  Level Oakland Center
Sat 08:26:35 PM 38.2625 -119.5742 347° North 410 472 34,000  Level Oakland Center
Sat 08:27:36 PM 38.3747 -119.5969 351° North 409 471 34,000  Level Oakland Center
Sat 08:28:37 PM 38.5008 -119.6303 348° North 416 479 34,000  Level Oakland Center
Sat 08:29:38 PM 38.6153 -119.6547 351° North 417 480 34,000  Level Oakland Center
Sat 08:30:39 PM 38.7294 -119.6856 348° North 416 479 34,000  Level Oakland Center
Sat 08:31:40 PM 38.8450 -119.7111 350° North 419 482 34,000  Level Oakland Center
Sat 08:32:41 PM 38.9606 -119.7414 348° North 421 484 34,000  Level Oakland Center
Sat 08:33:41 PM 39.0750 -119.7700 349° North 418 481 34,000  Level Oakland Center
Sat 08:34:42 PM 39.1906 -119.7964 350° North 420 483 34,000  Level Oakland Center
Sat 08:35:43 PM 39.3056 -119.8256 349° North 418 481 34,000  Level Oakland Center
Sat 08:36:44 PM 39.4200 -119.8539 349° North 418 481 34,000  Level Oakland Center
Sat 08:37:45 PM 39.5592 -119.8900 349° North 424 488 34,000  Level Oakland Center
Sat 08:38:46 PM 39.6753 -119.9147 351° North 421 484 34,000  Level Oakland Center
Sat 08:39:47 PM 39.7897 -119.9475 348° North 420 483 34,000  Level Oakland Center
Sat 08:40:48 PM 39.9056 -119.9728 350° North 419 482 34,000  Level Oakland Center
Sat 08:41:49 PM 40.0225 -120.0058 348° North 426 490 34,000  Level Oakland Center
Sat 08:42:50 PM 40.1400 -120.0325 350° North 428 493 34,000  Level Oakland Center
Sat 08:43:51 PM 40.2558 -120.0675 347° North 428 493 34,000  Level Oakland Center
Sat 08:44:52 PM 40.3747 -120.0900 352° North 431 496 34,000  Level Oakland Center
Sat 08:45:53 PM 40.4911 -120.1264 347° North 429 494 34,000  Level Oakland Center
Sat 08:46:54 PM 40.6022 -120.1492 351° North 429 494 34,000  Level Oakland Center
Sat 08:47:10 PM 40.6492 -120.1633 347° North 432 497 34,000  Level Seattle Center
Sat 08:48:10 PM 40.7678 -120.1964 348° North 436 502 34,000  Level Seattle Center
Sat 08:49:11 PM 40.8836 -120.2253 349° North 428 493 34,000  Level Seattle Center
Sat 08:50:11 PM 41.0006 -120.2589 348° North 430 495 34,000  Level Seattle Center
Sat 08:51:12 PM 41.1208 -120.2883 350° North 437 503 34,000  Level Seattle Center
Sat 08:52:13 PM 41.2397 -120.3222 348° North 438 504 34,000  Level Seattle Center
Sat 08:53:13 PM 41.3594 -120.3481 351° North 437 503 34,000  Level Seattle Center
Sat 08:54:14 PM 41.4764 -120.3836 347° North 434 499 34,000  Level Seattle Center
Sat 08:55:15 PM 41.5986 -120.4119 350° North 443 510 34,000  Level Seattle Center
Sat 08:56:15 PM 41.7167 -120.4450 348° North 437 503 34,000  Level Seattle Center
Sat 08:57:16 PM 41.8322 -120.4736 350° North 430 495 34,000  Level Seattle Center
Sat 08:58:16 PM 41.9517 -120.5103 347° North 439 505 34,000  Level Seattle Center
Sat 08:59:17 PM 42.0725 -120.5383 350° North 441 507 34,000  Level Seattle Center
Sat 09:00:18 PM 42.1919 -120.5739 348° North 443 510 34,000  Level Seattle Center
Sat 09:01:18 PM 42.3131 -120.6028 350° North 443 510 34,000  Level Seattle Center
Sat 09:02:19 PM 42.4333 -120.6375 348° North 444 511 34,000  Level Seattle Center
Sat 09:03:20 PM 42.5558 -120.6672 350° North 448 516 34,000  Level Seattle Center
Sat 09:04:20 PM 42.7000 -120.7086 348° North 443 510 34,000  Level Seattle Center
Sat 09:05:21 PM 42.8231 -120.7425 349° North 451 519 34,000  Level Seattle Center
Sat 09:06:21 PM 42.9419 -120.7742 349° North 438 504 34,000  Level Seattle Center
Sat 09:07:22 PM 43.0650 -120.8047 350° North 447 514 34,000  Level Seattle Center
Sat 09:08:23 PM 43.1856 -120.8417 347° North 446 513 34,000  Level Seattle Center
Sat 09:09:23 PM 43.3083 -120.8728 350° North 449 517 34,000  Level Seattle Center
Sat 09:10:24 PM 43.4300 -120.9128 347° North 450 518 34,000  Level Seattle Center
Sat 09:11:25 PM 43.5519 -120.9411 350° North 446 513 34,000  Level Seattle Center
Sat 09:12:25 PM 43.6842 -120.9808 348° North 454 522 34,000  Level Seattle Center
Sat 09:13:26 PM 43.8075 -121.0156 349° North 453 521 34,000  Level Seattle Center
Sat 09:14:26 PM 43.9300 -121.0522 348° North 453 521 34,000  Level Seattle Center
Sat 09:15:27 PM 44.0531 -121.0853 349° North 450 518 34,000  Level Seattle Center
Sat 09:16:28 PM 44.1778 -121.1256 347° North 456 525 34,000  Level Seattle Center
Sat 09:17:28 PM 44.3028 -121.1567 350° North 458 527 34,000  Level Seattle Center
Sat 09:18:29 PM 44.4175 -121.1944 347° North 452 520 34,000  Level Seattle Center
Sat 09:19:29 PM 44.5408 -121.2267 349° North 451 519 34,000  Level Seattle Center
Sat 09:20:30 PM 44.6719 -121.2678 347° North 452 520 34,000  Level Seattle Center
Sat 09:21:31 PM 44.7972 -121.3011 349° North 456 525 34,000  Level Seattle Center
Sat 09:22:31 PM 44.9197 -121.3400 347° North 452 520 34,000  Level Seattle Center
Sat 09:23:32 PM 45.0436 -121.3750 349° North 452 520 34,000  Level Seattle Center
Sat 09:24:33 PM 45.1661 -121.4144 347° North 450 518 34,000  Level Seattle Center
Sat 09:25:33 PM 45.2925 -121.4456 350° North 457 526 34,000  Level Seattle Center
Sat 09:26:34 PM 45.4144 -121.4900 346° North 454 522 34,000  Level Seattle Center
Sat 09:27:35 PM 45.5417 -121.5217 350° North 462 532 34,000  Level Seattle Center
Sat 09:28:35 PM 45.6653 -121.5644 346° North 460 529 34,000  Level Seattle Center
Sat 09:29:36 PM 45.7919 -121.5975 350° North 460 529 34,000  Level Seattle Center
Sat 09:30:36 PM 45.9153 -121.6408 346° North 458 527 34,000  Level Seattle Center
Sat 09:31:37 PM 46.0422 -121.6736 350° North 461 531 34,000  Level Seattle Center
Sat 09:32:38 PM 46.1661 -121.7186 346° North 460 529 34,000  Level Seattle Center
Sat 09:33:38 PM 46.2975 -121.7525 350° North 463 533 34,000  Level Seattle Center
Sat 09:34:39 PM 46.4211 -121.7972 346° North 463 533 34,000  Level Seattle Center
Sat 09:35:40 PM 46.5481 -121.8322 349° North 469 540 34,000  Level Seattle Center
Sat 09:36:40 PM 46.6967 -121.8861 346° North 464 534 34,000  Level Seattle Center
Sat 09:37:41 PM 46.8217 -121.9189 350° North 463 533 34,000  Level Seattle Center
Sat 09:38:42 PM 46.9450 -121.9625 346° North 463 533 34,000  Level Seattle Center
Sat 09:39:42 PM 47.0694 -121.9981 349° North 462 532 34,000 -149 Level Seattle Center
Sat 09:40:43 PM 47.1922 -122.0414 347° North 463 533 33,700 -1,537 Descending Seattle Center
Sat 09:41:43 PM 47.3189 -122.0783 349° North 469 540 30,900 -3,074 Descending Seattle Center
Sat 09:42:44 PM 47.4444 -122.1267 345° North 472 543 27,500 -3,049 Descending Seattle Center
Sat 09:43:45 PM 47.5736 -122.1583 351° North 482 555 24,700 -3,025 Descending Seattle Center
Sat 09:44:45 PM 47.7181 -122.2153 345° North 463 533 21,400 -2,876 Descending Seattle Center
Sat 09:45:46 PM 47.8378 -122.2469 350° North 450 518 18,900 -2,361 Descending Seattle Center
Sat 09:46:47 PM 47.9494 -122.2903 345° North 422 486 16,600 -1,981 Descending Seattle Center
Sat 09:47:29 PM 48.0303 -122.3100 351° North 396 456 15,500 -1,500 Descending Seattle Center
Sat 09:47:47 PM 48.0572 -122.3158 352° North 399 459 15,100 -1,823 Descending Seattle Center
Sat 09:48:48 PM 48.1525 -122.3450 348° North 350 403 13,100 -2,182 Descending Seattle Center
Sat 09:49:37 PM 48.2311 -122.3700 348° North 313 360 11,100 -2,147 Descending Seattle Center
Sat 09:50:37 PM 48.3239 -122.3997 348° North 314 361 9,200 -1,636 Descending Seattle Center
Sat 09:51:38 PM 48.4067 -122.4186 351° North 308 354 7,800 -1,488 Descending Seattle Center
Sat 09:52:38 PM 48.4861 -122.4494 346° North 297 342 6,200 -1,488 Descending Seattle Center
Sat 09:53:39 PM 48.5597 -122.4839 343° North 274 315 4,800 -1,230 Descending Seattle Center
Sat 09:54:40 PM 48.6314 -122.5197 342° North 251 289 3,700 -1,163 Descending Seattle Center
Sat 09:55:48 PM 48.6833 -122.5333 350° North 210 242 2,300 -1,219 Descending Vancouver Center
Sat 09:56:48 PM 48.7333 -122.5333 360° North 200 230 1,100 -1,200 Descending Vancouver Center

Login

Don't have an account? Register now (free) for customized features, flight alerts, and more!